createdAt,value
2023-05-19T00:01:05.518Z,8.30
2023-05-19T00:03:09.243Z,7.07
2023-05-19T00:05:13.117Z,8.40
2023-05-19T00:07:19.740Z,4.68
2023-05-19T00:09:21.524Z,4.53
2023-05-19T00:11:23.920Z,7.50
2023-05-19T00:13:25.874Z,7.40
2023-05-19T00:15:27.734Z,7.45
2023-05-19T00:17:29.329Z,11.20
2023-05-19T00:19:32.468Z,6.43
2023-05-19T00:21:34.088Z,8.73
2023-05-19T00:23:35.686Z,11.55
2023-05-19T00:25:37.243Z,6.57
2023-05-19T00:27:38.816Z,7.40
2023-05-19T00:29:40.425Z,6.82
2023-05-19T00:31:42.005Z,5.57
2023-05-19T00:33:43.576Z,6.50
2023-05-19T00:35:45.114Z,7.13
2023-05-19T00:37:46.802Z,12.27
2023-05-19T00:39:48.349Z,6.05
2023-05-19T00:41:49.897Z,6.75
2023-05-19T00:43:51.665Z,8.98
2023-05-19T00:45:53.432Z,5.85
2023-05-19T00:47:55.003Z,6.18
2023-05-19T00:49:56.583Z,6.72
2023-05-19T00:51:59.570Z,5.53
2023-05-19T00:54:01.199Z,9.32
2023-05-19T00:56:03.480Z,7.18
2023-05-19T00:58:06.009Z,7.03
2023-05-19T01:00:08.404Z,7.43
2023-05-19T01:02:10.050Z,6.78
2023-05-19T01:04:11.734Z,7.25
2023-05-19T01:06:13.413Z,6.32
2023-05-19T01:08:15.003Z,7.15
2023-05-19T01:10:16.536Z,7.95
2023-05-19T01:12:18.195Z,7.30
2023-05-19T01:14:21.552Z,9.90
2023-05-19T01:16:37.593Z,9.07
2023-05-19T01:18:51.518Z,6.72
2023-05-19T01:21:16.074Z,17.70
2023-05-19T01:23:29.875Z,6.47
2023-05-19T01:25:57.081Z,7.13
2023-05-19T01:28:32.200Z,5.88
2023-05-19T01:30:36.784Z,6.57
2023-05-19T01:32:41.998Z,6.95
2023-05-19T01:34:49.043Z,6.35
2023-05-19T01:36:51.425Z,8.10
2023-05-19T01:38:56.350Z,9.35
2023-05-19T01:40:58.407Z,7.10
2023-05-19T01:43:01.881Z,5.35
2023-05-19T01:45:06.713Z,8.23
2023-05-19T01:47:10.889Z,8.82
2023-05-19T01:49:13.394Z,9.85
2023-05-19T01:51:15.066Z,9.27
2023-05-19T01:53:16.796Z,11.50
2023-05-19T01:55:18.644Z,12.73
2023-05-19T01:57:40.506Z,10.60
2023-05-19T02:00:07.853Z,9.95
2023-05-19T02:02:26.413Z,13.05
2023-05-19T02:04:52.995Z,14.18
2023-05-19T02:07:05.433Z,8.82
2023-05-19T02:09:29.570Z,7.50
2023-05-19T02:11:40.005Z,10.45
2023-05-19T02:13:44.265Z,9.90
2023-05-19T02:15:47.227Z,10.00
2023-05-19T02:17:52.160Z,8.48
2023-05-19T02:19:53.905Z,9.05
2023-05-19T02:21:56.411Z,12.20
2023-05-19T02:23:57.974Z,14.40
2023-05-19T02:25:59.586Z,17.25
2023-05-19T02:28:01.190Z,17.40
2023-05-19T02:30:08.254Z,15.75
2023-05-19T02:32:11.875Z,22.08
2023-05-19T02:34:13.506Z,12.25
2023-05-19T02:36:15.171Z,13.50
2023-05-19T02:38:16.872Z,8.20
2023-05-19T02:40:18.642Z,9.63
2023-05-19T02:42:20.911Z,5.47
2023-05-19T02:44:22.448Z,7.07
2023-05-19T02:46:24.317Z,6.75
2023-05-19T02:48:25.888Z,7.18
2023-05-19T02:50:27.525Z,7.78
2023-05-19T02:52:29.074Z,5.93
2023-05-19T02:54:31.208Z,6.22
2023-05-19T02:56:32.806Z,10.40
2023-05-19T02:58:34.334Z,10.15
2023-05-19T03:00:35.876Z,6.15
2023-05-19T03:02:37.565Z,7.25
2023-05-19T03:04:42.088Z,5.88
2023-05-19T03:06:45.563Z,9.68
2023-05-19T03:08:47.182Z,6.65
2023-05-19T03:10:48.767Z,10.82
2023-05-19T03:12:51.003Z,7.22
2023-05-19T03:14:52.563Z,8.90
2023-05-19T03:16:56.034Z,13.65
2023-05-19T03:18:58.114Z,15.00
2023-05-19T03:20:59.884Z,16.65
2023-05-19T03:23:01.596Z,20.60
2023-05-19T03:25:03.481Z,31.23
2023-05-19T03:27:07.975Z,31.77
2023-05-19T03:29:09.590Z,26.00
2023-05-19T03:31:11.180Z,27.95
2023-05-19T03:33:13.026Z,12.93
2023-05-19T03:35:14.829Z,9.68
2023-05-19T03:37:16.513Z,7.93
2023-05-19T03:39:18.130Z,13.25
2023-05-19T03:41:19.764Z,8.50
2023-05-19T03:43:21.383Z,11.68
2023-05-19T03:45:22.936Z,9.05
2023-05-19T03:47:24.635Z,9.48
2023-05-19T03:49:26.211Z,9.73
2023-05-19T03:51:28.709Z,8.70
2023-05-19T03:53:30.405Z,8.73
2023-05-19T03:55:31.997Z,8.07
2023-05-19T03:57:33.694Z,8.68
2023-05-19T03:59:37.219Z,12.73
2023-05-19T04:01:38.777Z,7.68
2023-05-19T04:03:40.778Z,13.80
2023-05-19T04:05:42.395Z,8.85
2023-05-19T04:07:45.120Z,8.70
2023-05-19T04:09:48.621Z,8.95
2023-05-19T04:11:50.701Z,10.80
2023-05-19T04:13:52.229Z,11.82
2023-05-19T04:15:53.924Z,12.50
2023-05-19T04:17:56.137Z,13.15
2023-05-19T04:19:57.754Z,74.72
2023-05-19T04:21:59.426Z,19.98
2023-05-19T04:24:01.047Z,11.50
2023-05-19T04:26:03.790Z,7.65
2023-05-19T04:28:05.317Z,7.28
2023-05-19T04:30:07.660Z,7.57
2023-05-19T04:32:09.341Z,10.32
2023-05-19T04:34:11.475Z,11.10
2023-05-19T04:36:14.046Z,8.25
2023-05-19T04:38:19.067Z,9.25
2023-05-19T04:40:22.050Z,9.00
2023-05-19T04:42:26.189Z,11.48
2023-05-19T04:44:27.890Z,6.60
2023-05-19T04:46:30.375Z,8.60
2023-05-19T04:48:33.412Z,7.65
2023-05-19T04:50:35.490Z,11.75
2023-05-19T04:52:37.779Z,12.75
2023-05-19T04:54:40.133Z,10.93
2023-05-19T04:56:42.119Z,18.02
2023-05-19T04:58:44.970Z,10.15
2023-05-19T05:00:46.580Z,7.75
2023-05-19T05:02:49.100Z,8.27
2023-05-19T05:04:50.765Z,10.30
2023-05-19T05:06:52.334Z,8.10
2023-05-19T05:08:54.554Z,9.55
2023-05-19T05:10:56.480Z,10.20
2023-05-19T05:12:58.299Z,8.70
2023-05-19T05:15:00.280Z,11.48
2023-05-19T05:17:02.576Z,11.93
2023-05-19T05:19:04.889Z,10.23
2023-05-19T05:21:07.198Z,7.60
2023-05-19T05:23:09.915Z,8.30
2023-05-19T05:25:12.474Z,7.93
2023-05-19T05:27:15.048Z,8.48
2023-05-19T05:29:16.586Z,10.48
2023-05-19T05:31:18.229Z,9.23
2023-05-19T05:33:19.885Z,7.75
2023-05-19T05:35:24.139Z,8.73
2023-05-19T05:37:25.912Z,7.25
2023-05-19T05:39:28.132Z,6.72
2023-05-19T05:41:35.326Z,7.60
2023-05-19T05:43:37.092Z,7.70
2023-05-19T05:45:38.640Z,10.07
2023-05-19T05:47:41.569Z,9.27
2023-05-19T05:49:44.044Z,7.57
2023-05-19T05:51:54.579Z,7.25
2023-05-19T05:54:06.540Z,7.57
2023-05-19T05:56:08.988Z,7.93
2023-05-19T05:58:11.364Z,7.55
2023-05-19T06:00:15.938Z,7.28
2023-05-19T06:02:18.218Z,8.15
2023-05-19T06:04:21.273Z,10.05
2023-05-19T06:06:23.276Z,7.20
2023-05-19T06:08:24.828Z,10.73
2023-05-19T06:10:26.591Z,10.75
2023-05-19T06:12:28.171Z,10.10
2023-05-19T06:14:29.740Z,10.93
2023-05-19T06:16:31.436Z,14.27
2023-05-19T06:18:33.321Z,10.30
2023-05-19T06:20:35.070Z,8.40
2023-05-19T06:22:37.355Z,8.35
2023-05-19T06:24:39.669Z,10.23
2023-05-19T06:26:41.690Z,10.85
2023-05-19T06:28:43.363Z,8.45
2023-05-19T06:30:44.994Z,11.23
2023-05-19T06:32:47.007Z,9.27
2023-05-19T06:34:54.101Z,10.18
2023-05-19T06:36:55.696Z,13.57
2023-05-19T06:38:57.780Z,16.92
2023-05-19T06:40:59.422Z,9.10
2023-05-19T06:43:01.024Z,8.85
2023-05-19T06:45:02.684Z,10.45
2023-05-19T06:47:04.488Z,11.57
2023-05-19T06:49:06.180Z,13.93
2023-05-19T06:51:07.728Z,8.77
2023-05-19T06:53:09.295Z,9.52
2023-05-19T06:55:11.005Z,8.80
2023-05-19T06:57:12.579Z,10.32
2023-05-19T06:59:14.288Z,10.90
2023-05-19T07:01:15.851Z,22.95
2023-05-19T07:03:17.618Z,10.63
2023-05-19T07:05:19.683Z,12.18
2023-05-19T07:07:21.310Z,9.50
2023-05-19T07:09:22.912Z,8.75
2023-05-19T07:11:24.492Z,14.60
2023-05-19T07:13:27.486Z,11.68
2023-05-19T07:15:29.292Z,7.80
2023-05-19T07:17:31.004Z,9.30
2023-05-19T07:19:32.799Z,15.32
2023-05-19T07:21:34.378Z,13.80
2023-05-19T07:23:36.148Z,10.88
2023-05-19T07:25:37.795Z,10.20
2023-05-19T07:27:39.328Z,13.75
2023-05-19T07:29:41.041Z,12.98
2023-05-19T07:31:42.610Z,12.27
2023-05-19T07:33:44.267Z,12.82
2023-05-19T07:35:46.341Z,8.15
2023-05-19T07:37:48.368Z,10.35
2023-05-19T07:39:50.060Z,10.63
2023-05-19T07:41:55.662Z,10.15
2023-05-19T07:43:57.279Z,9.10
2023-05-19T07:45:59.059Z,10.18
2023-05-19T07:48:01.002Z,12.48
2023-05-19T07:50:02.768Z,7.90
2023-05-19T07:52:04.839Z,8.57
2023-05-19T07:54:08.354Z,12.38
2023-05-19T07:56:09.908Z,7.85
2023-05-19T07:58:11.423Z,11.18
2023-05-19T08:00:13.490Z,10.02
2023-05-19T08:02:15.051Z,8.70
2023-05-19T08:04:16.750Z,7.07
2023-05-19T08:06:18.409Z,7.57
2023-05-19T08:08:19.976Z,8.88
2023-05-19T08:10:21.547Z,6.43
2023-05-19T08:12:23.119Z,11.77
2023-05-19T08:14:24.754Z,12.95
2023-05-19T08:16:26.628Z,12.52
2023-05-19T08:18:28.858Z,10.00
2023-05-19T08:20:30.759Z,12.25
2023-05-19T08:22:32.420Z,8.52
2023-05-19T08:24:34.026Z,12.52
2023-05-19T08:26:37.595Z,8.90
2023-05-19T08:28:39.538Z,13.07
2023-05-19T08:30:41.186Z,12.35
2023-05-19T08:32:42.825Z,9.20
2023-05-19T08:34:44.426Z,18.83
2023-05-19T08:36:46.086Z,8.25
2023-05-19T08:38:47.658Z,9.00
2023-05-19T08:40:49.380Z,10.43
2023-05-19T08:42:51.379Z,9.30
2023-05-19T08:44:52.979Z,10.52
2023-05-19T08:46:56.276Z,12.35
2023-05-19T08:49:07.496Z,10.50
2023-05-19T08:51:23.274Z,9.75
2023-05-19T08:53:33.833Z,10.90
2023-05-19T08:55:47.758Z,15.40
2023-05-19T08:57:50.897Z,15.88
2023-05-19T08:59:53.245Z,17.58
2023-05-19T09:01:55.737Z,11.55
2023-05-19T09:03:57.724Z,14.98
2023-05-19T09:05:59.461Z,12.57
2023-05-19T09:08:02.918Z,14.25
2023-05-19T09:10:06.036Z,11.60
2023-05-19T09:12:07.666Z,16.75
2023-05-19T09:14:09.229Z,19.48
2023-05-19T09:16:12.062Z,22.40
2023-05-19T09:18:15.343Z,17.08
2023-05-19T09:20:17.652Z,14.90
2023-05-19T09:22:20.716Z,12.82
2023-05-19T09:24:26.142Z,9.43
2023-05-19T09:26:37.417Z,10.88
2023-05-19T09:28:40.514Z,11.88
2023-05-19T09:30:42.169Z,18.85
2023-05-19T09:32:44.785Z,19.13
2023-05-19T09:34:47.505Z,15.00
2023-05-19T09:36:50.069Z,15.50
2023-05-19T09:38:51.854Z,15.00
2023-05-19T09:40:57.283Z,25.13
2023-05-19T09:42:58.823Z,12.23
2023-05-19T09:45:02.068Z,16.45
2023-05-19T09:47:03.661Z,11.20
2023-05-19T09:49:14.518Z,8.43
2023-05-19T09:51:16.136Z,14.60
2023-05-19T09:53:18.603Z,17.67
2023-05-19T09:55:23.255Z,15.25
2023-05-19T09:57:28.511Z,14.70
2023-05-19T09:59:33.369Z,14.95
2023-05-19T10:01:36.406Z,15.68
2023-05-19T10:03:39.259Z,14.80
2023-05-19T10:05:42.060Z,12.70
2023-05-19T10:07:49.745Z,14.70
2023-05-19T10:09:53.145Z,21.80
2023-05-19T10:11:56.301Z,12.55
2023-05-19T10:13:58.243Z,16.13
2023-05-19T10:16:00.761Z,28.35
2023-05-19T10:18:03.684Z,27.70
2023-05-19T10:20:10.996Z,12.55
2023-05-19T10:22:12.619Z,14.00
2023-05-19T10:24:14.152Z,14.35
2023-05-19T10:26:16.427Z,21.67
2023-05-19T10:28:21.216Z,17.92
2023-05-19T10:30:34.530Z,19.90
2023-05-19T10:32:38.049Z,13.23
2023-05-19T10:35:02.584Z,16.13
2023-05-19T10:37:34.416Z,29.50
2023-05-19T10:39:36.307Z,17.30
2023-05-19T10:41:51.052Z,19.05
2023-05-19T10:44:13.104Z,15.30
2023-05-19T10:46:14.672Z,16.08
2023-05-19T10:48:17.036Z,12.98
2023-05-19T10:50:20.113Z,13.13
2023-05-19T10:52:25.873Z,14.85
2023-05-19T10:54:41.503Z,17.65
2023-05-19T10:56:47.560Z,20.33
2023-05-19T10:58:50.237Z,19.23
2023-05-19T11:01:00.488Z,19.38
2023-05-19T11:03:18.829Z,13.90
2023-05-19T11:05:28.843Z,18.17
2023-05-19T11:09:40.038Z,13.35
2023-05-19T11:11:52.728Z,18.45
2023-05-19T11:13:55.606Z,18.02
2023-05-19T11:15:57.192Z,20.88
2023-05-19T11:18:01.721Z,19.30
2023-05-19T11:20:05.042Z,18.05
2023-05-19T11:22:10.872Z,20.50
2023-05-19T11:24:42.250Z,21.45
2023-05-19T11:26:43.855Z,19.05
2023-05-19T11:28:47.707Z,16.02
2023-05-19T11:30:52.300Z,19.60
2023-05-19T11:32:54.592Z,23.17
2023-05-19T11:34:57.173Z,33.95
2023-05-19T11:36:59.480Z,31.05
2023-05-19T11:39:02.530Z,31.23
2023-05-19T11:41:04.403Z,26.45
2023-05-19T11:43:05.943Z,29.20
2023-05-19T11:45:08.259Z,24.77
2023-05-19T11:47:09.900Z,25.17
2023-05-19T11:49:11.688Z,25.95
2023-05-19T11:51:13.410Z,20.17
2023-05-19T11:53:16.491Z,24.23
2023-05-19T11:55:21.037Z,23.20
2023-05-19T11:57:22.758Z,19.23
2023-05-19T11:59:36.012Z,20.20
2023-05-19T12:01:38.115Z,20.90
2023-05-19T12:03:39.867Z,20.98
2023-05-19T12:05:48.195Z,26.50
2023-05-19T12:07:51.642Z,22.27
2023-05-19T12:09:55.448Z,20.17
2023-05-19T12:11:57.098Z,19.15
2023-05-19T12:13:59.125Z,22.30
2023-05-19T12:16:01.799Z,22.02
2023-05-19T12:18:03.955Z,21.70
2023-05-19T12:20:06.821Z,19.38
2023-05-19T12:22:08.788Z,22.88
2023-05-19T12:24:11.076Z,22.83
2023-05-19T12:26:13.064Z,22.90
2023-05-19T12:28:16.373Z,20.30
2023-05-19T12:30:19.232Z,19.85
2023-05-19T12:32:25.541Z,20.92
2023-05-19T12:34:27.464Z,22.08
2023-05-19T12:36:29.327Z,25.33
2023-05-19T12:38:32.012Z,33.17
2023-05-19T12:40:35.798Z,23.58
2023-05-19T12:42:37.970Z,27.58
2023-05-19T12:44:46.792Z,18.15
2023-05-19T12:46:52.138Z,19.70
2023-05-19T12:49:00.818Z,25.20
2023-05-19T12:51:02.503Z,31.25
2023-05-19T12:53:08.850Z,23.95
2023-05-19T12:55:11.980Z,20.00
2023-05-19T12:57:16.860Z,20.17
2023-05-19T12:59:37.459Z,24.25
2023-05-19T13:01:40.236Z,23.92
2023-05-19T13:03:42.731Z,21.65
2023-05-19T13:05:49.075Z,23.05
2023-05-19T13:08:04.678Z,23.15
2023-05-19T13:10:06.749Z,18.92
2023-05-19T13:12:08.709Z,23.60
2023-05-19T13:14:10.527Z,27.00
2023-05-19T13:16:12.338Z,26.50
2023-05-19T13:18:14.518Z,28.48
2023-05-19T13:20:16.069Z,23.83
2023-05-19T13:22:17.761Z,23.48
2023-05-19T13:24:19.334Z,24.10
2023-05-19T13:26:21.648Z,31.27
2023-05-19T13:28:23.442Z,26.15
2023-05-19T13:30:25.838Z,26.42
2023-05-19T13:32:27.590Z,20.13
2023-05-19T13:34:29.335Z,27.80
2023-05-19T13:36:32.829Z,29.30
2023-05-19T13:38:34.386Z,28.33
2023-05-19T13:40:36.869Z,31.08
2023-05-19T13:42:38.466Z,21.83
2023-05-19T13:44:40.056Z,32.72
2023-05-19T13:46:45.837Z,29.63
2023-05-19T13:48:48.458Z,28.63
2023-05-19T13:50:52.512Z,23.98
2023-05-19T13:52:54.192Z,20.50
2023-05-19T13:54:56.877Z,19.23
2023-05-19T13:56:58.470Z,22.77
2023-05-19T13:59:00.082Z,22.73
2023-05-19T14:01:01.756Z,24.10
2023-05-19T14:03:03.873Z,24.90
2023-05-19T14:05:07.127Z,20.58
2023-05-19T14:07:10.424Z,20.92
2023-05-19T14:09:12.651Z,24.52
2023-05-19T14:11:21.729Z,21.95
2023-05-19T14:15:28.321Z,26.90
2023-05-19T14:17:29.990Z,24.52
2023-05-19T14:19:31.602Z,24.25
2023-05-19T14:21:33.262Z,18.48
2023-05-19T14:23:34.878Z,18.33
2023-05-19T14:25:36.558Z,19.42
2023-05-19T14:27:39.997Z,28.58
2023-05-19T14:29:42.297Z,33.05
2023-05-19T14:31:43.920Z,42.03
2023-05-19T14:33:45.539Z,51.78
2023-05-19T14:35:47.223Z,33.33
2023-05-19T14:37:48.848Z,31.98
2023-05-19T14:39:50.540Z,26.75
2023-05-19T14:41:53.022Z,31.55
2023-05-19T14:43:54.676Z,40.22
2023-05-19T14:45:57.020Z,28.20
2023-05-19T14:47:58.869Z,62.03
2023-05-19T14:50:00.557Z,27.13
2023-05-19T14:52:02.249Z,26.35
2023-05-19T14:54:03.857Z,21.65
2023-05-19T14:56:06.517Z,22.15
2023-05-19T14:58:16.264Z,25.42
2023-05-19T15:00:28.844Z,31.52
2023-05-19T15:02:30.615Z,32.63
2023-05-19T15:04:32.291Z,28.77
2023-05-19T15:06:33.837Z,45.90
2023-05-19T15:08:37.795Z,16.33
2023-05-19T15:10:39.460Z,21.85
2023-05-19T15:12:41.198Z,21.90
2023-05-19T15:14:42.732Z,22.80
2023-05-19T15:16:44.376Z,24.80
2023-05-19T15:18:45.990Z,26.73
2023-05-19T15:20:48.600Z,37.35
2023-05-19T15:22:50.383Z,45.42
2023-05-19T15:24:51.925Z,34.17
2023-05-19T15:26:54.367Z,23.67
2023-05-19T15:28:55.989Z,26.83
2023-05-19T15:30:57.553Z,22.17
2023-05-19T15:32:59.195Z,38.97
2023-05-19T15:35:00.912Z,27.92
2023-05-19T15:37:02.470Z,24.90
2023-05-19T15:39:04.069Z,16.83
2023-05-19T15:41:09.278Z,16.95
2023-05-19T15:43:10.916Z,17.63
2023-05-19T15:45:12.597Z,58.33
2023-05-19T15:47:14.188Z,32.95
2023-05-19T15:49:18.027Z,31.90
2023-05-19T15:51:19.636Z,75.25
2023-05-19T15:53:21.231Z,38.83
2023-05-19T15:55:22.863Z,25.80
2023-05-19T15:57:25.034Z,30.45
2023-05-19T15:59:26.649Z,31.10
2023-05-19T16:01:28.602Z,33.47
2023-05-19T16:03:30.492Z,32.83
2023-05-19T16:05:32.411Z,49.55
2023-05-19T16:07:33.971Z,202.60
2023-05-19T16:09:35.529Z,72.80
2023-05-19T16:11:37.116Z,28.90
2023-05-19T16:13:38.674Z,62.25
2023-05-19T16:15:40.663Z,26.70
2023-05-19T16:17:42.561Z,23.23
2023-05-19T16:19:44.264Z,75.60
2023-05-19T16:21:45.916Z,48.35
2023-05-19T16:23:47.678Z,23.92
2023-05-19T16:25:49.514Z,46.65
2023-05-19T16:27:51.554Z,21.02
2023-05-19T16:29:53.285Z,31.20
2023-05-19T16:31:54.909Z,35.13
2023-05-19T16:33:56.618Z,26.00
2023-05-19T16:35:59.962Z,22.63
2023-05-19T16:38:01.585Z,19.27
2023-05-19T16:40:03.567Z,23.33
2023-05-19T16:42:05.314Z,20.02
2023-05-19T16:44:06.846Z,19.15
2023-05-19T16:46:09.955Z,57.15
2023-05-19T16:48:11.606Z,63.00
2023-05-19T16:50:13.271Z,21.50
2023-05-19T16:52:14.886Z,22.10
2023-05-19T16:54:16.420Z,21.17
2023-05-19T16:56:18.097Z,22.15
2023-05-19T16:58:19.749Z,24.58
2023-05-19T17:00:21.354Z,23.15
2023-05-19T17:02:22.961Z,36.28
2023-05-19T17:04:24.626Z,25.00
2023-05-19T17:06:26.307Z,29.80
2023-05-19T17:08:28.056Z,19.45
2023-05-19T17:10:29.672Z,19.95
2023-05-19T17:12:31.360Z,23.77
2023-05-19T17:14:33.025Z,20.08
2023-05-19T17:16:38.060Z,24.23
2023-05-19T17:18:39.687Z,27.15
2023-05-19T17:20:41.697Z,23.40
2023-05-19T17:22:43.362Z,22.15
2023-05-19T17:24:45.114Z,35.38
2023-05-19T17:26:46.717Z,23.80
2023-05-19T17:28:48.454Z,24.77
2023-05-19T17:30:50.039Z,35.53
2023-05-19T17:32:51.804Z,32.72
2023-05-19T17:34:53.827Z,26.88
2023-05-19T17:36:55.454Z,24.92
2023-05-19T17:38:56.955Z,22.10
2023-05-19T17:41:02.221Z,27.73
2023-05-19T17:43:04.039Z,34.35
2023-05-19T17:45:07.692Z,54.85
2023-05-19T17:47:09.309Z,58.83
2023-05-19T17:49:12.978Z,48.38
2023-05-19T17:51:14.542Z,41.53
2023-05-19T17:53:16.419Z,31.10
2023-05-19T17:55:18.636Z,26.85
2023-05-19T17:57:24.669Z,24.58
2023-05-19T17:59:26.519Z,27.33
2023-05-19T18:01:28.569Z,25.27
2023-05-19T18:03:30.826Z,26.60
2023-05-19T18:05:33.432Z,21.85
2023-05-19T18:07:39.251Z,25.48
2023-05-19T18:09:45.731Z,25.48
2023-05-19T18:11:47.700Z,24.40
2023-05-19T18:13:49.272Z,31.13
2023-05-19T18:15:52.712Z,30.25
2023-05-19T18:17:54.353Z,35.92
2023-05-19T18:19:55.949Z,34.10
2023-05-19T18:21:57.576Z,31.45
2023-05-19T18:24:03.180Z,23.63
2023-05-19T18:26:04.928Z,28.38
2023-05-19T18:28:06.650Z,25.23
2023-05-19T18:30:08.528Z,27.65
2023-05-19T18:32:10.229Z,37.53
2023-05-19T18:34:12.237Z,29.23
2023-05-19T18:36:15.545Z,36.33
2023-05-19T18:38:17.288Z,38.13
2023-05-19T18:40:18.906Z,39.35
2023-05-19T18:42:20.570Z,29.20
2023-05-19T18:44:22.193Z,30.55
2023-05-19T18:46:23.780Z,34.28
2023-05-19T18:48:28.389Z,32.58
2023-05-19T18:50:30.182Z,26.58
2023-05-19T18:52:31.737Z,24.17
2023-05-19T18:54:33.369Z,35.75
2023-05-19T18:56:35.491Z,30.00
2023-05-19T18:58:37.133Z,32.47
2023-05-19T19:00:38.751Z,29.63
2023-05-19T19:02:40.478Z,26.60
2023-05-19T19:04:42.157Z,27.33
2023-05-19T19:06:44.024Z,28.52
2023-05-19T19:08:45.736Z,28.55
2023-05-19T19:10:50.410Z,29.13
2023-05-19T19:12:52.049Z,36.13
2023-05-19T19:14:53.747Z,30.77
2023-05-19T19:16:55.338Z,32.10
2023-05-19T19:18:57.132Z,31.08
2023-05-19T19:21:01.630Z,37.55
2023-05-19T19:23:06.480Z,29.90
2023-05-19T19:25:08.659Z,38.63
2023-05-19T19:27:10.469Z,36.25
2023-05-19T19:29:12.189Z,96.72
2023-05-19T19:31:13.754Z,44.92
2023-05-19T19:33:15.575Z,51.13
2023-05-19T19:35:17.257Z,42.45
2023-05-19T19:37:19.057Z,48.45
2023-05-19T19:39:20.642Z,47.03
2023-05-19T19:41:22.284Z,39.35
2023-05-19T19:43:23.833Z,36.50
2023-05-19T19:45:25.522Z,34.47
2023-05-19T19:47:27.485Z,31.60
2023-05-19T19:49:29.147Z,33.83
2023-05-19T19:51:31.641Z,43.08
2023-05-19T19:53:33.257Z,74.18
2023-05-19T19:55:34.829Z,35.08
2023-05-19T19:57:36.397Z,36.47
2023-05-19T19:59:37.958Z,29.25
2023-05-19T20:01:39.601Z,34.22
2023-05-19T20:03:41.670Z,36.38
2023-05-19T20:05:44.047Z,37.30
2023-05-19T20:07:45.634Z,41.80
2023-05-19T20:09:47.867Z,39.42
2023-05-19T20:11:49.418Z,38.15
2023-05-19T20:13:51.363Z,47.75
2023-05-19T20:15:52.967Z,43.33
2023-05-19T20:17:54.713Z,43.35
2023-05-19T20:19:56.602Z,41.33
2023-05-19T20:21:58.184Z,34.60
2023-05-19T20:24:00.464Z,34.75
2023-05-19T20:26:11.077Z,42.47
2023-05-19T20:28:14.486Z,38.20
2023-05-19T20:30:16.432Z,34.55
2023-05-19T20:32:18.056Z,34.63
2023-05-19T20:34:19.865Z,35.55
2023-05-19T20:36:21.436Z,41.38
2023-05-19T20:38:23.018Z,37.75
2023-05-19T20:40:24.610Z,37.47
2023-05-19T20:42:26.207Z,44.10
2023-05-19T20:44:27.730Z,42.97
2023-05-19T20:46:29.514Z,38.58
2023-05-19T20:48:31.424Z,39.75
2023-05-19T20:50:33.311Z,40.15
2023-05-19T20:52:35.035Z,35.63
2023-05-19T20:54:36.695Z,41.60
2023-05-19T20:56:38.270Z,40.83
2023-05-19T20:58:39.982Z,44.75
2023-05-19T21:00:41.648Z,45.13
2023-05-19T21:02:43.321Z,39.10
2023-05-19T21:04:46.334Z,42.05
2023-05-19T21:06:48.028Z,42.90
2023-05-19T21:08:49.996Z,35.72
2023-05-19T21:10:51.619Z,41.53
2023-05-19T21:12:53.191Z,39.20
2023-05-19T21:14:54.782Z,40.40
2023-05-19T21:16:56.671Z,34.45
2023-05-19T21:18:58.500Z,35.60
2023-05-19T21:21:02.797Z,40.58
2023-05-19T21:23:04.835Z,40.60
2023-05-19T21:25:06.807Z,46.00
2023-05-19T21:27:08.358Z,27.65
2023-05-19T21:29:10.216Z,32.45
2023-05-19T21:31:11.848Z,29.52
2023-05-19T21:33:13.561Z,32.83
2023-05-19T21:35:15.219Z,29.40
2023-05-19T21:37:17.744Z,30.27
2023-05-19T21:39:19.337Z,30.60
2023-05-19T21:41:21.749Z,37.55
2023-05-19T21:43:23.739Z,25.35
2023-05-19T21:45:25.336Z,26.10
2023-05-19T21:47:27.037Z,23.27
2023-05-19T21:49:28.612Z,27.80
2023-05-19T21:51:30.255Z,33.83
2023-05-19T21:53:32.917Z,26.70
2023-05-19T21:55:34.985Z,23.45
2023-05-19T21:57:36.622Z,33.72
2023-05-19T21:59:38.639Z,26.17
2023-05-19T22:01:40.379Z,32.72
2023-05-19T22:03:42.082Z,31.30
2023-05-19T22:05:49.067Z,32.85
2023-05-19T22:07:50.606Z,36.05
2023-05-19T22:09:53.231Z,28.30
2023-05-19T22:11:54.804Z,24.88
2023-05-19T22:13:56.456Z,30.45
2023-05-19T22:15:58.432Z,31.70
2023-05-19T22:18:00.085Z,36.35
2023-05-19T22:20:01.725Z,29.65
2023-05-19T22:22:12.963Z,30.10
2023-05-19T22:24:16.186Z,25.05
2023-05-19T22:26:17.844Z,27.63
2023-05-19T22:28:19.404Z,26.30
2023-05-19T22:30:21.096Z,29.90
2023-05-19T22:32:22.690Z,27.35
2023-05-19T22:34:24.313Z,30.08
2023-05-19T22:36:25.966Z,25.42
2023-05-19T22:38:27.584Z,40.90
2023-05-19T22:40:29.229Z,37.33
2023-05-19T22:42:30.820Z,34.70
2023-05-19T22:44:32.366Z,27.27
2023-05-19T22:46:34.744Z,33.58
2023-05-19T22:48:36.338Z,31.85
2023-05-19T22:50:37.875Z,26.08
2023-05-19T22:52:39.427Z,26.25
2023-05-19T22:54:41.008Z,29.67
2023-05-19T22:56:48.024Z,24.23
2023-05-19T22:58:49.548Z,27.65
2023-05-19T23:00:51.323Z,32.13
2023-05-19T23:02:52.957Z,29.95
2023-05-19T23:04:54.600Z,37.60
2023-05-19T23:06:56.158Z,28.48
2023-05-19T23:08:59.422Z,32.97
2023-05-19T23:11:02.253Z,30.55
2023-05-19T23:13:03.774Z,30.02
2023-05-19T23:15:06.916Z,31.45
2023-05-19T23:17:08.563Z,29.63
2023-05-19T23:19:10.308Z,30.45
2023-05-19T23:21:11.924Z,28.95
2023-05-19T23:23:13.488Z,26.08
2023-05-19T23:25:15.095Z,32.00
2023-05-19T23:27:16.704Z,30.55
2023-05-19T23:29:18.355Z,24.70
2023-05-19T23:31:20.087Z,23.38
2023-05-19T23:33:21.735Z,32.35
2023-05-19T23:35:23.345Z,26.85
2023-05-19T23:37:24.949Z,23.83
2023-05-19T23:39:26.882Z,23.52
2023-05-19T23:41:28.689Z,25.33
2023-05-19T23:43:32.247Z,29.05
2023-05-19T23:45:34.016Z,32.60
2023-05-19T23:47:35.806Z,30.40
2023-05-19T23:49:37.497Z,34.40
2023-05-19T23:51:39.057Z,24.92
2023-05-19T23:53:40.827Z,27.20
2023-05-19T23:55:42.369Z,30.38
2023-05-19T23:57:43.967Z,53.20
2023-05-19T23:59:45.789Z,33.47
